createdAt,value
2022-09-30T00:01:54.419Z,98607.72
2022-09-30T00:04:24.233Z,98602.34
2022-09-30T00:06:54.505Z,98596.63
2022-09-30T00:09:22.159Z,98596.44
2022-09-30T00:11:49.481Z,98603.81
2022-09-30T00:14:19.972Z,98602.72
2022-09-30T00:16:50.436Z,98607.72
2022-09-30T00:19:19.891Z,98604.75
2022-09-30T00:21:48.050Z,98594.38
2022-09-30T00:24:17.606Z,98594.03
2022-09-30T00:26:48.041Z,98597.19
2022-09-30T00:29:17.286Z,98599.22
2022-09-30T00:31:46.849Z,98598.28
2022-09-30T00:34:14.195Z,98594.59
2022-09-30T00:36:49.771Z,98599.94
2022-09-30T00:39:24.965Z,98595.16
2022-09-30T00:41:56.063Z,98604.38
2022-09-30T00:44:55.727Z,98605.50
2022-09-30T00:47:40.894Z,98604.75
2022-09-30T00:50:26.479Z,98602.72
2022-09-30T00:53:05.331Z,98611.03
2022-09-30T00:55:41.621Z,98611.44
2022-09-30T00:58:12.143Z,98603.47
2022-09-30T01:00:39.523Z,98598.66
2022-09-30T01:03:07.460Z,98602.16
2022-09-30T01:05:35.479Z,98604.38
2022-09-30T01:08:08.467Z,98599.75
2022-09-30T01:10:35.854Z,98600.31
2022-09-30T01:13:06.111Z,98601.06
2022-09-30T01:15:43.274Z,98599.38
2022-09-30T01:18:33.224Z,98602.16
2022-09-30T01:21:18.592Z,98594.41
2022-09-30T01:24:04.487Z,98604.00
2022-09-30T01:26:37.410Z,98601.41
2022-09-30T01:29:40.501Z,98598.84
2022-09-30T01:32:24.534Z,98602.16
2022-09-30T01:34:55.339Z,98602.91
2022-09-30T01:38:12.254Z,98602.16
2022-09-30T01:41:08.900Z,98611.03
2022-09-30T01:43:54.917Z,98616.56
2022-09-30T01:46:34.842Z,98615.28
2022-09-30T01:49:01.813Z,98611.78
2022-09-30T01:51:53.908Z,98616.22
2022-09-30T01:54:25.210Z,98611.97
2022-09-30T01:57:03.386Z,98613.25
2022-09-30T01:59:46.499Z,98613.25
2022-09-30T02:02:19.684Z,98616.22
2022-09-30T02:05:16.428Z,98613.25
2022-09-30T02:07:50.476Z,98616.22
2022-09-30T02:10:33.284Z,98611.78
2022-09-30T02:13:13.164Z,98620.28
2022-09-30T02:15:46.371Z,98621.78
2022-09-30T02:18:28.834Z,98617.69
2022-09-30T02:21:01.085Z,98616.03
2022-09-30T02:23:33.323Z,98613.81
2022-09-30T02:26:29.800Z,98616.03
2022-09-30T02:29:04.973Z,98620.66
2022-09-30T02:31:38.097Z,98616.75
2022-09-30T02:34:08.478Z,98623.78
2022-09-30T02:36:44.951Z,98619.19
2022-09-30T02:39:26.002Z,98621.41
2022-09-30T02:41:59.269Z,98626.03
2022-09-30T02:44:26.845Z,98628.63
2022-09-30T02:47:10.952Z,98630.25
2022-09-30T02:49:58.361Z,98637.66
2022-09-30T02:52:34.926Z,98641.56
2022-09-30T02:55:13.537Z,98630.84
2022-09-30T02:57:59.577Z,98639.69
2022-09-30T03:00:27.387Z,98636.56
2022-09-30T03:03:00.829Z,98635.06
2022-09-30T03:05:29.419Z,98643.19
2022-09-30T03:07:57.209Z,98636.53
2022-09-30T03:10:24.792Z,98630.25
2022-09-30T03:13:04.328Z,98635.78
2022-09-30T03:16:01.389Z,98640.41
2022-09-30T03:18:50.649Z,98642.06
2022-09-30T03:21:45.108Z,98640.97
2022-09-30T03:24:32.611Z,98632.47
2022-09-30T03:27:14.838Z,98639.09
2022-09-30T03:29:46.080Z,98645.03
2022-09-30T03:32:43.462Z,98639.28
2022-09-30T03:35:20.303Z,98646.28
2022-09-30T03:38:13.260Z,98642.25
2022-09-30T03:40:56.274Z,98652.78
2022-09-30T03:43:33.488Z,98646.50
2022-09-30T03:46:14.681Z,98649.25
2022-09-30T03:48:43.186Z,98658.31
2022-09-30T03:51:13.640Z,98655.00
2022-09-30T03:53:42.360Z,98661.66
2022-09-30T03:56:09.707Z,98663.69
2022-09-30T03:58:44.568Z,98665.91
2022-09-30T04:01:21.627Z,98668.13
2022-09-30T04:03:52.419Z,98662.22
2022-09-30T04:06:22.672Z,98660.94
2022-09-30T04:08:50.458Z,98657.59
2022-09-30T04:11:18.024Z,98663.69
2022-09-30T04:13:45.027Z,98673.88
2022-09-30T04:16:13.142Z,98673.13
2022-09-30T04:18:40.212Z,98675.34
2022-09-30T04:21:08.946Z,98680.16
2022-09-30T04:23:40.949Z,98684.03
2022-09-30T04:26:10.416Z,98678.66
2022-09-30T04:28:37.676Z,98688.06
2022-09-30T04:31:06.700Z,98681.78
2022-09-30T04:33:33.977Z,98695.63
2022-09-30T04:36:06.452Z,98697.84
2022-09-30T04:38:34.232Z,98699.13
2022-09-30T04:41:06.172Z,98698.41
2022-09-30T04:43:34.545Z,98709.31
2022-09-30T04:46:01.710Z,98708.75
2022-09-30T04:48:30.424Z,98716.13
2022-09-30T04:51:01.879Z,98724.59
2022-09-30T04:53:31.548Z,98725.53
2022-09-30T04:56:00.418Z,98721.09
2022-09-30T04:58:34.652Z,98731.63
2022-09-30T05:01:10.360Z,98727.91
2022-09-30T05:03:37.628Z,98742.13
2022-09-30T05:06:05.790Z,98739.16
2022-09-30T05:08:33.923Z,98737.47
2022-09-30T05:11:13.513Z,98745.78
2022-09-30T05:13:41.538Z,98755.22
2022-09-30T05:16:09.834Z,98754.25
2022-09-30T05:18:37.633Z,98766.38
2022-09-30T05:21:05.717Z,98761.03
2022-09-30T05:23:33.437Z,98769.69
2022-09-30T05:26:05.727Z,98773.91
2022-09-30T05:28:34.768Z,98774.88
2022-09-30T05:31:06.382Z,98781.34
2022-09-30T05:33:34.093Z,98784.50
2022-09-30T05:36:04.138Z,98781.94
2022-09-30T05:38:31.213Z,98795.44
2022-09-30T05:40:58.206Z,98794.91
2022-09-30T05:43:25.469Z,98798.22
2022-09-30T05:45:56.238Z,98800.63
2022-09-30T05:48:25.665Z,98811.53
2022-09-30T05:50:57.722Z,98809.50
2022-09-30T05:53:26.027Z,98813.19
2022-09-30T05:55:53.327Z,98813.59
2022-09-30T05:58:21.465Z,98814.50
2022-09-30T06:00:49.630Z,98820.25
2022-09-30T06:03:18.268Z,98822.47
2022-09-30T06:05:46.003Z,98823.63
2022-09-30T06:08:14.847Z,98832.66
2022-09-30T06:10:44.290Z,98830.09
2022-09-30T06:13:11.687Z,98844.91
2022-09-30T06:15:39.766Z,98851.69
2022-09-30T06:18:09.977Z,98854.25
2022-09-30T06:20:37.547Z,98855.72
2022-09-30T06:23:05.116Z,98861.97
2022-09-30T06:25:32.580Z,98868.81
2022-09-30T06:27:59.648Z,98867.69
2022-09-30T06:30:28.683Z,98876.72
2022-09-30T06:33:01.431Z,98871.38
2022-09-30T06:35:30.690Z,98874.56
2022-09-30T06:37:57.647Z,98878.59
2022-09-30T06:40:26.092Z,98883.25
2022-09-30T06:42:58.599Z,98879.75
2022-09-30T06:45:32.657Z,98881.78
2022-09-30T06:48:02.542Z,98893.97
2022-09-30T06:50:31.178Z,98898.41
2022-09-30T06:53:02.114Z,98894.72
2022-09-30T06:55:30.296Z,98899.38
2022-09-30T06:57:57.812Z,98904.59
2022-09-30T07:00:26.807Z,98902.97
2022-09-30T07:02:57.390Z,98913.09
2022-09-30T07:05:26.511Z,98907.97
2022-09-30T07:07:55.132Z,98917.41
2022-09-30T07:10:22.135Z,98916.31
2022-09-30T07:12:51.231Z,98926.34
2022-09-30T07:15:22.261Z,98920.03
2022-09-30T07:17:53.786Z,98927.09
2022-09-30T07:20:21.054Z,98922.88
2022-09-30T07:22:50.448Z,98932.25
2022-09-30T07:25:18.125Z,98931.03
2022-09-30T07:27:46.901Z,98932.72
2022-09-30T07:30:24.039Z,98936.75
2022-09-30T07:32:58.276Z,98945.41
2022-09-30T07:35:25.527Z,98942.47
2022-09-30T07:37:52.628Z,98948.53
2022-09-30T07:40:19.985Z,98954.44
2022-09-30T07:42:46.950Z,98955.53
2022-09-30T07:45:19.395Z,98956.13
2022-09-30T07:47:52.505Z,98959.97
2022-09-30T07:50:20.427Z,98962.38
2022-09-30T07:52:47.636Z,98964.75
2022-09-30T07:55:19.755Z,98959.25
2022-09-30T07:57:46.809Z,98959.13
2022-09-30T08:00:40.636Z,98965.44
2022-09-30T08:03:01.037Z,98960.09
2022-09-30T08:05:28.239Z,98967.41
2022-09-30T08:07:55.284Z,98965.78
2022-09-30T08:10:22.317Z,98985.41
2022-09-30T08:12:49.561Z,98980.63
2022-09-30T08:15:16.546Z,98994.75
2022-09-30T08:17:43.461Z,99001.97
2022-09-30T08:20:13.700Z,99009.47
2022-09-30T08:22:41.986Z,99011.13
2022-09-30T08:25:09.168Z,99011.38
2022-09-30T08:27:36.635Z,99021.56
2022-09-30T08:30:05.109Z,99018.97
2022-09-30T08:32:32.423Z,99021.56
2022-09-30T08:34:59.765Z,99033.41
2022-09-30T08:37:26.762Z,99027.28
2022-09-30T08:39:53.712Z,99035.06
2022-09-30T08:42:50.596Z,99033.91
2022-09-30T08:45:42.427Z,99040.72
2022-09-30T08:48:41.943Z,99036.06
2022-09-30T08:51:30.592Z,99039.03
2022-09-30T08:54:02.508Z,99047.63
2022-09-30T08:56:32.168Z,99052.63
2022-09-30T08:59:06.807Z,99047.06
2022-09-30T09:01:44.444Z,99052.81
2022-09-30T09:04:13.390Z,99056.66
2022-09-30T09:07:03.351Z,99042.22
2022-09-30T09:09:43.155Z,99047.22
2022-09-30T09:12:22.788Z,99047.84
2022-09-30T09:15:18.027Z,99042.38
2022-09-30T09:18:23.297Z,99048.88
2022-09-30T09:20:56.119Z,99045.44
2022-09-30T09:23:24.581Z,99045.66
2022-09-30T09:25:56.008Z,99040.25
2022-09-30T09:28:50.358Z,99043.63
2022-09-30T09:31:21.503Z,99051.78
2022-09-30T09:33:48.829Z,99063.25
2022-09-30T09:36:45.284Z,99066.44
2022-09-30T09:39:28.812Z,99070.72
2022-09-30T09:42:28.253Z,99068.88
2022-09-30T09:45:23.100Z,99068.69
2022-09-30T09:47:53.981Z,99074.81
2022-09-30T09:50:36.240Z,99073.88
2022-09-30T09:53:18.493Z,99078.94
2022-09-30T09:55:46.004Z,99074.50
2022-09-30T09:58:17.538Z,99083.94
2022-09-30T10:00:47.642Z,99080.78
2022-09-30T10:03:28.720Z,99079.69
2022-09-30T10:06:10.240Z,99088.22
2022-09-30T10:08:40.373Z,99085.44
2022-09-30T10:11:20.570Z,99086.38
2022-09-30T10:13:48.668Z,99083.19
2022-09-30T10:16:24.907Z,99098.78
2022-09-30T10:18:52.127Z,99095.78
2022-09-30T10:21:25.865Z,99114.16
2022-09-30T10:23:53.701Z,99111.75
2022-09-30T10:28:59.663Z,99125.13
2022-09-30T10:31:42.044Z,99144.22
2022-09-30T10:34:40.336Z,99142.88
2022-09-30T10:37:21.123Z,99142.88
2022-09-30T10:39:54.562Z,99140.09
2022-09-30T10:42:26.635Z,99142.50
2022-09-30T10:45:03.920Z,99145.84
2022-09-30T10:47:36.270Z,99153.88
2022-09-30T10:50:13.066Z,99155.53
2022-09-30T10:53:04.819Z,99157.56
2022-09-30T10:55:35.274Z,99166.66
2022-09-30T10:58:23.607Z,99151.47
2022-09-30T11:00:58.481Z,99142.75
2022-09-30T11:03:35.173Z,99150.56
2022-09-30T11:06:02.654Z,99164.84
2022-09-30T11:08:32.575Z,99162.44
2022-09-30T11:11:18.385Z,99147.41
2022-09-30T11:14:02.002Z,99166.16
2022-09-30T11:16:50.277Z,99168.00
2022-09-30T11:19:26.941Z,99177.28
2022-09-30T11:21:56.842Z,99171.34
2022-09-30T11:24:41.889Z,99178.56
2022-09-30T11:27:17.228Z,99186.75
2022-09-30T11:30:03.429Z,99196.59
2022-09-30T11:32:35.362Z,99195.47
2022-09-30T11:35:08.779Z,99186.84
2022-09-30T11:37:54.621Z,99196.13
2022-09-30T11:40:30.041Z,99202.94
2022-09-30T11:43:07.410Z,99182.19
2022-09-30T11:45:45.789Z,99188.72
2022-09-30T11:48:41.017Z,99194.69
2022-09-30T11:51:39.860Z,99204.97
2022-09-30T11:54:06.894Z,99203.28
2022-09-30T11:56:51.767Z,99215.28
2022-09-30T11:59:27.599Z,99224.22
2022-09-30T12:01:58.995Z,99211.84
2022-09-30T12:04:38.147Z,99214.88
2022-09-30T12:07:15.132Z,99205.72
2022-09-30T12:10:02.392Z,99225.00
2022-09-30T12:12:32.298Z,99231.25
2022-09-30T12:15:08.621Z,99222.00
2022-09-30T12:17:50.637Z,99227.78
2022-09-30T12:20:43.708Z,99226.31
2022-09-30T12:23:14.145Z,99239.75
2022-09-30T12:25:46.990Z,99233.66
2022-09-30T12:28:42.076Z,99236.72
2022-09-30T12:31:30.737Z,99235.16
2022-09-30T12:34:18.327Z,99224.47
2022-09-30T12:37:17.172Z,99224.16
2022-09-30T12:39:55.732Z,99226.25
2022-09-30T12:42:44.428Z,99228.75
2022-09-30T12:45:48.925Z,99215.31
2022-09-30T12:48:21.049Z,99211.97
2022-09-30T12:50:54.814Z,99213.50
2022-09-30T12:53:28.326Z,99212.38
2022-09-30T12:56:04.578Z,99221.16
2022-09-30T12:58:36.044Z,99220.50
2022-09-30T13:01:07.796Z,99228.25
2022-09-30T13:04:18.034Z,99231.28
2022-09-30T13:06:45.492Z,99234.16
2022-09-30T13:10:17.027Z,99239.03
2022-09-30T13:12:46.987Z,99230.22
2022-09-30T13:15:42.071Z,99232.03
2022-09-30T13:18:26.895Z,99226.34
2022-09-30T13:21:06.851Z,99235.16
2022-09-30T13:23:49.343Z,99242.53
2022-09-30T13:26:40.178Z,99249.59
2022-09-30T13:29:16.475Z,99240.38
2022-09-30T13:31:49.852Z,99252.06
2022-09-30T13:34:26.616Z,99247.56
2022-09-30T13:37:01.775Z,99254.09
2022-09-30T13:39:35.475Z,99238.13
2022-09-30T13:42:20.839Z,99240.75
2022-09-30T13:45:13.735Z,99249.47
2022-09-30T13:47:51.910Z,99246.53
2022-09-30T13:50:54.859Z,99253.97
2022-09-30T13:53:30.440Z,99250.16
2022-09-30T13:56:02.973Z,99246.28
2022-09-30T13:59:09.856Z,99242.00
2022-09-30T14:01:47.412Z,99228.75
2022-09-30T14:04:45.968Z,99231.94
2022-09-30T14:07:41.758Z,99230.03
2022-09-30T14:10:35.178Z,99220.09
2022-09-30T14:13:32.575Z,99219.38
2022-09-30T14:16:13.623Z,99216.41
2022-09-30T14:19:08.958Z,99224.78
2022-09-30T14:21:49.243Z,99226.44
2022-09-30T14:24:24.178Z,99232.94
2022-09-30T14:27:36.577Z,99237.63
2022-09-30T14:30:12.690Z,99236.66
2022-09-30T14:32:46.574Z,99236.81
2022-09-30T14:35:29.717Z,99231.28
2022-09-30T14:38:08.128Z,99230.22
2022-09-30T14:40:40.349Z,99241.56
2022-09-30T14:43:13.354Z,99240.97
2022-09-30T14:45:46.733Z,99237.44
2022-09-30T14:48:24.888Z,99230.38
2022-09-30T14:50:56.344Z,99234.16
2022-09-30T14:53:39.651Z,99229.91
2022-09-30T14:56:36.545Z,99232.75
2022-09-30T14:59:18.018Z,99224.06
2022-09-30T15:01:48.363Z,99233.72
2022-09-30T15:04:18.612Z,99229.78
2022-09-30T15:06:49.835Z,99230.06
2022-09-30T15:09:26.499Z,99228.03
2022-09-30T15:11:54.317Z,99224.09
2022-09-30T15:14:24.642Z,99231.16
2022-09-30T15:16:59.444Z,99228.34
2022-09-30T15:19:34.261Z,99235.06
2022-09-30T15:22:05.206Z,99233.59
2022-09-30T15:24:38.071Z,99240.16
2022-09-30T15:27:05.859Z,99245.00
2022-09-30T15:29:33.529Z,99247.03
2022-09-30T15:32:05.502Z,99254.16
2022-09-30T15:34:34.233Z,99255.28
2022-09-30T15:37:06.945Z,99256.25
2022-09-30T15:40:00.615Z,99254.16
2022-09-30T15:42:50.858Z,99252.72
2022-09-30T15:45:20.980Z,99250.69
2022-09-30T15:48:11.658Z,99250.34
2022-09-30T15:50:41.909Z,99250.00
2022-09-30T15:53:38.712Z,99247.19
2022-09-30T15:56:26.197Z,99261.91
2022-09-30T15:59:11.177Z,99263.00
2022-09-30T16:01:42.824Z,99264.69
2022-09-30T16:04:17.853Z,99274.19
2022-09-30T16:07:08.861Z,99276.03
2022-09-30T16:09:40.647Z,99272.72
2022-09-30T16:12:13.729Z,99277.19
2022-09-30T16:14:49.698Z,99269.94
2022-09-30T16:17:25.828Z,99273.66
2022-09-30T16:19:55.033Z,99281.84
2022-09-30T16:22:36.546Z,99283.66
2022-09-30T16:25:28.260Z,99289.63
2022-09-30T16:28:02.917Z,99294.84
2022-09-30T16:30:32.370Z,99295.78
2022-09-30T16:33:04.562Z,99292.03
2022-09-30T16:35:31.829Z,99290.94
2022-09-30T16:38:05.090Z,99292.03
2022-09-30T16:40:35.829Z,99296.50
2022-09-30T16:43:07.566Z,99297.63
2022-09-30T16:45:35.658Z,99299.47
2022-09-30T16:48:11.876Z,99305.78
2022-09-30T16:50:40.733Z,99309.13
2022-09-30T16:53:10.753Z,99313.97
2022-09-30T16:55:38.137Z,99320.66
2022-09-30T16:58:05.569Z,99324.72
2022-09-30T17:00:33.580Z,99321.75
2022-09-30T17:03:00.587Z,99320.06
2022-09-30T17:05:28.038Z,99328.97
2022-09-30T17:07:58.523Z,99329.53
2022-09-30T17:10:29.147Z,99327.31
2022-09-30T17:13:00.353Z,99327.31
2022-09-30T17:15:29.159Z,99333.44
2022-09-30T17:17:57.189Z,99329.91
2022-09-30T17:20:25.211Z,99318.56
2022-09-30T17:22:52.816Z,99326.19
2022-09-30T17:25:22.206Z,99324.69
2022-09-30T17:27:52.372Z,99322.47
2022-09-30T17:30:20.159Z,99324.34
2022-09-30T17:32:47.990Z,99328.97
2022-09-30T17:35:15.828Z,99326.75
2022-09-30T17:37:46.338Z,99323.22
2022-09-30T17:40:35.343Z,99320.81
2022-09-30T17:43:08.691Z,99325.44
2022-09-30T17:45:38.221Z,99324.69
2022-09-30T17:48:09.263Z,99328.78
2022-09-30T17:50:45.334Z,99331.19
2022-09-30T17:53:19.751Z,99328.97
2022-09-30T17:55:49.353Z,99332.47
2022-09-30T17:58:18.344Z,99331.56
2022-09-30T18:00:46.890Z,99333.41
2022-09-30T18:03:14.084Z,99342.69
2022-09-30T18:05:41.549Z,99347.16
2022-09-30T18:08:11.893Z,99342.13
2022-09-30T18:10:39.560Z,99346.41
2022-09-30T18:13:07.124Z,99349.19
2022-09-30T18:15:34.375Z,99346.75
2022-09-30T18:18:06.081Z,99351.97
2022-09-30T18:20:35.136Z,99351.03
2022-09-30T18:23:04.749Z,99351.38
2022-09-30T18:25:32.938Z,99354.16
2022-09-30T18:28:01.180Z,99352.69
2022-09-30T18:30:29.152Z,99348.41
2022-09-30T18:32:57.184Z,99354.53
2022-09-30T18:35:26.668Z,99354.53
2022-09-30T18:37:56.204Z,99356.75
2022-09-30T18:40:28.043Z,99358.47
2022-09-30T18:43:00.069Z,99357.50
2022-09-30T18:45:31.635Z,99356.22
2022-09-30T18:48:03.113Z,99354.91
2022-09-30T18:50:31.287Z,99352.88
2022-09-30T18:52:59.146Z,99359.72
2022-09-30T18:55:29.428Z,99350.09
2022-09-30T18:57:58.443Z,99343.63
2022-09-30T19:00:27.187Z,99342.31
2022-09-30T19:02:54.647Z,99339.88
2022-09-30T19:05:22.225Z,99351.19
2022-09-30T19:07:52.688Z,99346.72
2022-09-30T19:10:20.618Z,99349.69
2022-09-30T19:12:48.097Z,99354.31
2022-09-30T19:15:16.297Z,99357.66
2022-09-30T19:17:46.396Z,99356.16
2022-09-30T19:20:19.383Z,99343.34
2022-09-30T19:22:52.479Z,99353.53
2022-09-30T19:25:23.431Z,99344.47
2022-09-30T19:27:56.331Z,99346.50
2022-09-30T19:30:24.195Z,99350.19
2022-09-30T19:32:59.200Z,99348.31
2022-09-30T19:35:38.579Z,99345.16
2022-09-30T19:38:12.753Z,99332.34
2022-09-30T19:40:43.594Z,99333.66
2022-09-30T19:43:13.511Z,99329.91
2022-09-30T19:45:40.989Z,99329.75
2022-09-30T19:48:08.524Z,99330.34
2022-09-30T19:50:39.695Z,99329.78
2022-09-30T19:53:07.289Z,99325.88
2022-09-30T19:55:46.240Z,99334.75
2022-09-30T19:58:16.963Z,99326.41
2022-09-30T20:00:47.123Z,99332.94
2022-09-30T20:03:15.418Z,99327.91
2022-09-30T20:05:44.047Z,99317.53
2022-09-30T20:08:11.783Z,99323.47
2022-09-30T20:10:39.181Z,99322.75
2022-09-30T20:13:07.054Z,99331.81
2022-09-30T20:15:52.494Z,99325.34
2022-09-30T20:18:22.982Z,99336.66
2022-09-30T20:20:50.213Z,99326.06
2022-09-30T20:23:19.356Z,99329.59
2022-09-30T20:25:47.001Z,99328.13
2022-09-30T20:28:14.673Z,99322.16
2022-09-30T20:30:48.125Z,99323.63
2022-09-30T20:33:20.706Z,99331.25
2022-09-30T20:35:48.293Z,99331.63
2022-09-30T20:38:24.959Z,99326.97
2022-09-30T20:40:56.341Z,99322.72
2022-09-30T20:43:28.069Z,99316.41
2022-09-30T20:46:01.472Z,99316.19
2022-09-30T20:48:47.961Z,99316.19
2022-09-30T20:51:17.690Z,99322.66
2022-09-30T20:53:50.460Z,99312.84
2022-09-30T20:56:18.314Z,99317.88
2022-09-30T20:58:46.621Z,99327.69
2022-09-30T21:01:18.697Z,99331.78
2022-09-30T21:03:51.791Z,99326.22
2022-09-30T21:06:27.388Z,99339.72
2022-09-30T21:08:57.308Z,99329.91
2022-09-30T21:11:25.287Z,99337.38
2022-09-30T21:13:52.905Z,99338.84
2022-09-30T21:16:22.321Z,99346.81
2022-09-30T21:18:51.707Z,99353.13
2022-09-30T21:21:21.394Z,99352.94
2022-09-30T21:23:48.887Z,99343.81
2022-09-30T21:26:18.253Z,99343.88
2022-09-30T21:28:49.293Z,99342.03
2022-09-30T21:31:24.931Z,99352.22
2022-09-30T21:33:53.496Z,99361.81
2022-09-30T21:36:24.476Z,99351.25
2022-09-30T21:38:52.383Z,99347.53
2022-09-30T21:41:22.596Z,99335.66
2022-09-30T21:43:49.761Z,99340.28
2022-09-30T21:46:18.627Z,99343.06
2022-09-30T21:48:46.321Z,99343.81
2022-09-30T21:51:14.075Z,99341.03
2022-09-30T21:53:41.836Z,99334.91
2022-09-30T21:56:12.214Z,99322.28
2022-09-30T21:58:39.667Z,99328.41
2022-09-30T22:01:07.666Z,99328.94
2022-09-30T22:03:38.542Z,99330.97
2022-09-30T22:06:08.109Z,99337.84
2022-09-30T22:08:40.244Z,99333.72
2022-09-30T22:11:14.584Z,99329.25
2022-09-30T22:13:46.448Z,99337.41
2022-09-30T22:16:15.407Z,99344.44
2022-09-30T22:18:43.686Z,99346.66
2022-09-30T22:21:14.018Z,99344.03
2022-09-30T22:23:41.305Z,99342.16
2022-09-30T22:26:12.627Z,99343.25
2022-09-30T22:28:40.077Z,99340.28
2022-09-30T22:31:19.627Z,99342.38
2022-09-30T22:34:11.162Z,99335.81
2022-09-30T22:36:57.461Z,99346.75
2022-09-30T22:39:27.655Z,99336.53
2022-09-30T22:41:56.346Z,99332.78
2022-09-30T22:44:25.754Z,99329.50
2022-09-30T22:46:53.788Z,99327.22
2022-09-30T22:49:21.831Z,99330.19
2022-09-30T22:51:53.711Z,99328.13
2022-09-30T22:54:20.863Z,99327.00
2022-09-30T22:56:50.824Z,99324.06
2022-09-30T22:59:18.650Z,99324.78
2022-09-30T23:01:46.115Z,99324.03
2022-09-30T23:04:16.708Z,99320.34
2022-09-30T23:06:51.241Z,99319.78
2022-09-30T23:09:20.827Z,99326.44
2022-09-30T23:11:54.356Z,99331.25
2022-09-30T23:14:22.626Z,99330.69
2022-09-30T23:16:50.296Z,99321.25
2022-09-30T23:19:19.969Z,99312.34
2022-09-30T23:21:47.521Z,99321.25
2022-09-30T23:24:15.049Z,99322.34
2022-09-30T23:26:44.348Z,99328.44
2022-09-30T23:29:13.176Z,99334.53
2022-09-30T23:31:40.691Z,99351.19
2022-09-30T23:34:07.957Z,99338.19
2022-09-30T23:36:37.059Z,99345.66
2022-09-30T23:39:04.122Z,99339.91
2022-09-30T23:41:34.331Z,99343.97
2022-09-30T23:44:02.052Z,99335.84
2022-09-30T23:46:29.058Z,99338.25
2022-09-30T23:48:58.561Z,99347.16
2022-09-30T23:51:26.435Z,99336.38
2022-09-30T23:53:56.152Z,99336.03
2022-09-30T23:56:23.351Z,99331.59
2022-09-30T23:58:50.675Z,99348.28
